Portada
METAR-TAF:

METAR-TAF

Aeropuertos :

Aeropuerto de Wasilla

Wasilla, Alaska, Estados Unidos

latitud: 61-34-19N, longitud: 149-32-26W, altitud: 106 m

Observación

El informe se hizo hace 45 minutos, a las 17:56 UTC
Viento 10 kt del noreste con ráfagas de 20 kt
Temperatura -4°C
Humedad 49%
Presión 978 hPa
Visibilidad: 16.1 km
Cielo nuboso a una altura de 8500 ft
Cielo nuboso a una altura de 11000 ft

METAR: PAWS 301756Z AUTO 05010G20KT 10SM BKN085 BKN110 M04/M13 A2887 RMK AO2 SLP784 60000 T10391128 11028 21039 55004 FZRANO

Hora: 09:41 (18:41 UTC)


TAF: falta

Observaciones y pronósticos meteorológicos de más de 4000 aeropuertos (mensajes METAR y TAF).

Los puntos amarillos y rojos representan las estaciones disponibles.

Ponga el ratón en el punto deseado para ver el nombre de la estación.

Haga clic para ver las observaciones y los pronósticos meteorológicos.

Para cambiar el mapa : haga clic en los botones verdes con una cruz de color negro para hacer un zoom, en el botón verde con un guión para alejar o en las flechas verdes para mapas adyacentes.


METAR-TAF: